Time;durP1;ratioP1;P1;durP2;ratioP2;P2;SDS_P1;SDS_P2;PMS_P1;PMS_P2;Temp;Humidity;BMP_temperature;BMP_pressure;BME280_temperature;BME280_humidity;BME280_pressure;Samples;Min_cycle;Max_cycle;Signal;HPM_P1;HPM_P2
2022/10/26 00:02:21;;;;;;;2.08;1.17;;;;;;;;;;5001055;28;20038;-83
2022/10/26 00:04:46;;;;;;;2.88;1.30;;;;;;;;;;4982550;28;20175;-83
2022/10/26 00:07:11;;;;;;;2.28;1.13;;;;;;;;;;5001036;28;20070;-83
2022/10/26 00:09:37;;;;;;;2.20;1.20;;;;;;;;;;4999848;28;20058;-82
2022/10/26 00:12:02;;;;;;;3.45;1.05;;;;;;;;;;5001306;28;20042;-84
2022/10/26 00:14:28;;;;;;;3.67;1.30;;;;;;;;;;4983264;28;20046;-84
2022/10/26 00:16:54;;;;;;;4.38;1.10;;;;;;;;;;5001008;28;20031;-83
2022/10/26 00:19:19;;;;;;;4.63;1.30;;;;;;;;;;5001477;28;20034;-83
2022/10/26 00:21:45;;;;;;;2.05;1.10;;;;;;;;;;5002055;28;20121;-83
2022/10/26 00:24:11;;;;;;;4.03;1.20;;;;;;;;;;5000656;28;20034;-84
2022/10/26 00:26:37;;;;;;;1.77;0.95;;;;;;;;;;4999503;28;20033;-81
2022/10/26 00:29:03;;;;;;;4.13;1.20;;;;;;;;;;4997867;28;20037;-82
2022/10/26 00:31:28;;;;;;;3.60;1.38;;;;;;;;;;4979868;28;20042;-82
2022/10/26 00:33:55;;;;;;;3.45;1.02;;;;;;;;;;4980756;28;20034;-83
2022/10/26 00:36:21;;;;;;;2.97;1.10;;;;;;;;;;4997764;28;20049;-82
2022/10/26 00:38:53;;;;;;;3.67;1.20;;;;;;;;;;4980269;28;20066;-83
2022/10/26 00:41:22;;;;;;;3.63;1.00;;;;;;;;;;4998053;28;20078;-82
2022/10/26 00:43:48;;;;;;;2.15;1.10;;;;;;;;;;4980347;28;20032;-82
2022/10/26 00:46:34;;;;;;;1.33;0.95;;;;;;;;;;4980416;28;20030;-82
2022/10/26 00:49:19;;;;;;;2.70;1.05;;;;;;;;;;4980237;28;20093;-83
2022/10/26 00:51:49;;;;;;;1.90;1.08;;;;;;;;;;4998354;28;20507;-83
2022/10/26 00:54:17;;;;;;;1.65;1.10;;;;;;;;;;4964475;28;20117;-83
2022/10/26 00:56:45;;;;;;;1.67;0.90;;;;;;;;;;4964641;28;20034;-82
2022/10/26 00:59:13;;;;;;;4.22;1.00;;;;;;;;;;4998306;28;20034;-82
2022/10/26 01:01:42;;;;;;;4.13;0.93;;;;;;;;;;4996641;28;20142;-82
2022/10/26 01:04:08;;;;;;;3.58;1.20;;;;;;;;;;4998465;28;20041;-81
2022/10/26 01:06:35;;;;;;;1.48;1.02;;;;;;;;;;4998138;28;20117;-83
2022/10/26 01:09:01;;;;;;;4.50;1.20;;;;;;;;;;4997760;28;20048;-84
2022/10/26 01:11:27;;;;;;;1.60;1.10;;;;;;;;;;4980193;28;20265;-83
2022/10/26 01:13:54;;;;;;;3.22;1.05;;;;;;;;;;4980446;28;20042;-82
2022/10/26 01:16:55;;;;;;;3.10;1.05;;;;;;;;;;4998653;28;20034;-83
2022/10/26 01:19:46;;;;;;;2.67;1.40;;;;;;;;;;4980525;28;20038;-82
2022/10/26 01:22:20;;;;;;;2.55;1.10;;;;;;;;;;4981140;28;20404;-83
2022/10/26 01:24:58;;;;;;;1.92;0.90;;;;;;;;;;4981283;28;20034;-83
2022/10/26 01:27:29;;;;;;;1.67;1.10;;;;;;;;;;4980856;28;20026;-83
2022/10/26 01:30:24;;;;;;;2.97;1.08;;;;;;;;;;4998613;28;20057;-83
2022/10/26 01:33:18;;;;;;;1.55;0.93;;;;;;;;;;4999374;28;20056;-84
2022/10/26 01:36:08;;;;;;;3.58;1.10;;;;;;;;;;4998086;28;20045;-84
2022/10/26 01:38:34;;;;;;;2.75;1.10;;;;;;;;;;4998493;28;20038;-84
2022/10/26 01:41:24;;;;;;;3.63;1.10;;;;;;;;;;4980424;28;20044;-83
2022/10/26 01:43:55;;;;;;;1.58;1.00;;;;;;;;;;4997028;28;20487;-83
2022/10/26 01:46:24;;;;;;;1.27;0.90;;;;;;;;;;4980152;28;20035;-83
2022/10/26 01:48:54;;;;;;;4.82;1.13;;;;;;;;;;4999292;28;20061;-83
2022/10/26 01:51:21;;;;;;;4.15;1.20;;;;;;;;;;4997193;28;20041;-82
2022/10/26 01:53:46;;;;;;;1.98;1.10;;;;;;;;;;4981826;28;20049;-84
2022/10/26 01:56:26;;;;;;;2.33;1.00;;;;;;;;;;4981133;28;20042;-82
2022/10/26 01:58:54;;;;;;;4.85;1.38;;;;;;;;;;4999427;28;20034;-84
2022/10/26 02:01:46;;;;;;;2.40;1.02;;;;;;;;;;4999303;28;20042;-82
2022/10/26 02:04:21;;;;;;;2.05;1.00;;;;;;;;;;4981502;28;20042;-83
2022/10/26 02:07:02;;;;;;;2.42;0.85;;;;;;;;;;4999877;28;20042;-84
2022/10/26 02:09:28;;;;;;;1.88;0.93;;;;;;;;;;4998809;28;20103;-83
2022/10/26 02:11:54;;;;;;;1.65;0.80;;;;;;;;;;4998126;28;20158;-83
2022/10/26 02:14:36;;;;;;;2.63;0.90;;;;;;;;;;4997426;28;20498;-83
2022/10/26 02:17:07;;;;;;;1.15;0.90;;;;;;;;;;4998038;28;20040;-84
2022/10/26 02:19:38;;;;;;;2.08;1.00;;;;;;;;;;4998747;28;20049;-83
2022/10/26 02:22:20;;;;;;;0.90;0.77;;;;;;;;;;4980325;28;20462;-82
2022/10/26 02:24:49;;;;;;;5.30;1.02;;;;;;;;;;4998065;28;20462;-83
2022/10/26 02:27:23;;;;;;;1.70;0.80;;;;;;;;;;4999192;28;20479;-83
2022/10/26 02:29:52;;;;;;;1.70;0.85;;;;;;;;;;4984513;28;20038;-83
2022/10/26 02:32:19;;;;;;;2.92;0.80;;;;;;;;;;4985174;28;20112;-83
2022/10/26 02:34:48;;;;;;;2.15;1.20;;;;;;;;;;5002281;28;20038;-83
2022/10/26 02:37:17;;;;;;;3.90;0.90;;;;;;;;;;5002929;28;20061;-84
2022/10/26 02:39:45;;;;;;;1.42;1.02;;;;;;;;;;4984902;28;20145;-83
2022/10/26 02:42:14;;;;;;;2.20;0.85;;;;;;;;;;4985482;28;20046;-83
2022/10/26 02:44:52;;;;;;;1.98;0.90;;;;;;;;;;4985144;28;20510;-84
2022/10/26 02:47:18;;;;;;;2.85;0.90;;;;;;;;;;4985343;28;20034;-84
2022/10/26 02:49:44;;;;;;;2.05;0.98;;;;;;;;;;5001947;28;20066;-83
2022/10/26 02:52:09;;;;;;;1.42;0.85;;;;;;;;;;4999789;28;20112;-83
2022/10/26 02:54:47;;;;;;;1.88;0.95;;;;;;;;;;4982495;28;20042;-82
2022/10/26 02:57:19;;;;;;;3.45;0.90;;;;;;;;;;4982614;28;20042;-83
2022/10/26 02:59:46;;;;;;;2.20;0.90;;;;;;;;;;5014641;28;20034;-83
2022/10/26 03:02:15;;;;;;;1.65;0.90;;;;;;;;;;5014910;28;20072;-83
2022/10/26 03:04:41;;;;;;;1.90;0.80;;;;;;;;;;4999938;28;20034;-83
2022/10/26 03:07:06;;;;;;;2.83;0.90;;;;;;;;;;4981761;28;20605;-83
2022/10/26 03:09:32;;;;;;;2.05;0.80;;;;;;;;;;4999673;28;20037;-82
2022/10/26 03:11:57;;;;;;;1.02;0.90;;;;;;;;;;4999852;28;20545;-83
2022/10/26 03:14:23;;;;;;;3.15;1.08;;;;;;;;;;5014119;28;20035;-83
2022/10/26 03:16:48;;;;;;;2.90;1.25;;;;;;;;;;5000137;28;20031;-82
2022/10/26 03:19:14;;;;;;;1.98;1.02;;;;;;;;;;5000105;28;20072;-83
2022/10/26 03:21:41;;;;;;;2.45;0.90;;;;;;;;;;4999397;28;20042;-83
2022/10/26 03:24:07;;;;;;;4.63;0.93;;;;;;;;;;4981149;28;20030;-83
2022/10/26 03:26:33;;;;;;;3.47;1.17;;;;;;;;;;4982326;28;20041;-83
2022/10/26 03:28:58;;;;;;;4.00;1.00;;;;;;;;;;4999856;28;20070;-83
2022/10/26 03:31:23;;;;;;;1.92;0.95;;;;;;;;;;5000239;28;20487;-84
2022/10/26 03:33:49;;;;;;;2.35;1.15;;;;;;;;;;5000811;28;20216;-82
2022/10/26 03:36:14;;;;;;;1.52;0.90;;;;;;;;;;4999259;28;20038;-83
2022/10/26 03:38:40;;;;;;;1.58;0.90;;;;;;;;;;4998467;28;20065;-83
2022/10/26 03:41:05;;;;;;;3.88;0.88;;;;;;;;;;4981726;28;20046;-82
2022/10/26 03:43:31;;;;;;;2.95;1.08;;;;;;;;;;5014595;28;20038;-83
2022/10/26 03:45:56;;;;;;;2.35;0.90;;;;;;;;;;4981952;28;20038;-83
2022/10/26 03:48:22;;;;;;;2.10;0.80;;;;;;;;;;4981906;28;20078;-84
2022/10/26 03:50:47;;;;;;;2.15;0.80;;;;;;;;;;5000039;28;20106;-83
2022/10/26 03:53:13;;;;;;;1.55;0.80;;;;;;;;;;4966159;28;20037;-83
2022/10/26 03:55:38;;;;;;;1.52;1.00;;;;;;;;;;4999695;28;20092;-83
2022/10/26 03:58:04;;;;;;;3.65;1.00;;;;;;;;;;4982118;28;20094;-83
2022/10/26 04:00:29;;;;;;;1.35;0.73;;;;;;;;;;4982719;28;20034;-83
2022/10/26 04:02:59;;;;;;;0.98;0.70;;;;;;;;;;4982695;28;20042;-83
2022/10/26 04:05:26;;;;;;;0.95;0.77;;;;;;;;;;4982567;28;20052;-83
2022/10/26 04:07:56;;;;;;;1.23;0.90;;;;;;;;;;4982859;28;20026;-84
2022/10/26 04:10:23;;;;;;;1.42;0.90;;;;;;;;;;4982796;28;20042;-84
2022/10/26 04:12:49;;;;;;;1.88;0.90;;;;;;;;;;5000752;28;20118;-83
2022/10/26 04:15:15;;;;;;;3.45;0.80;;;;;;;;;;5000669;28;20038;-83
2022/10/26 04:17:41;;;;;;;1.83;0.90;;;;;;;;;;4983165;28;20034;-84
2022/10/26 04:20:07;;;;;;;4.68;0.90;;;;;;;;;;4999256;23;20049;-88
2022/10/26 04:22:33;;;;;;;3.53;0.90;;;;;;;;;;5035392;28;20081;-88
2022/10/26 04:24:58;;;;;;;1.88;1.00;;;;;;;;;;5020218;28;20036;-88
2022/10/26 04:27:24;;;;;;;2.67;1.00;;;;;;;;;;5039070;28;20393;-88
2022/10/26 04:29:49;;;;;;;2.33;1.00;;;;;;;;;;5021325;28;20597;-88
2022/10/26 04:32:17;;;;;;;1.33;0.93;;;;;;;;;;5039090;28;20021;-89
2022/10/26 04:34:42;;;;;;;1.83;1.10;;;;;;;;;;5036930;28;20504;-88
2022/10/26 04:37:08;;;;;;;3.40;1.00;;;;;;;;;;5036336;28;20025;-88
2022/10/26 04:39:33;;;;;;;2.88;1.30;;;;;;;;;;5038217;28;20041;-88
2022/10/26 04:41:59;;;;;;;1.77;1.13;;;;;;;;;;5038151;28;20025;-88
2022/10/26 04:44:24;;;;;;;8.70;1.73;;;;;;;;;;5037969;28;20044;-88
2022/10/26 04:46:52;;;;;;;5.22;1.52;;;;;;;;;;5037137;28;20048;-88
2022/10/26 04:49:30;;;;;;;1.20;1.00;;;;;;;;;;5036794;28;20433;-88
2022/10/26 04:52:00;;;;;;;2.10;1.15;;;;;;;;;;5037827;28;20029;-88
2022/10/26 04:54:29;;;;;;;1.38;1.08;;;;;;;;;;5038159;28;20042;-88
2022/10/26 04:56:54;;;;;;;2.78;1.10;;;;;;;;;;5037137;28;20108;-88
2022/10/26 04:59:25;;;;;;;2.90;1.10;;;;;;;;;;5036642;28;20657;-88
2022/10/26 05:01:53;;;;;;;5.30;1.00;;;;;;;;;;5035738;28;20041;-88
2022/10/26 05:04:23;;;;;;;4.38;1.00;;;;;;;;;;5036794;28;20037;-88
2022/10/26 05:06:57;;;;;;;4.18;1.30;;;;;;;;;;5037869;28;20037;-89
2022/10/26 05:09:23;;;;;;;5.30;1.23;;;;;;;;;;5033806;28;20091;-89
2022/10/26 05:11:48;;;;;;;2.83;1.70;;;;;;;;;;5018235;28;20042;-88
2022/10/26 05:14:17;;;;;;;3.53;2.10;;;;;;;;;;5016307;28;20117;-89
2022/10/26 05:16:54;;;;;;;2.40;1.35;;;;;;;;;;5017462;28;20555;-87
2022/10/26 05:19:20;;;;;;;2.35;1.20;;;;;;;;;;5016905;28;20106;-89
2022/10/26 05:21:52;;;;;;;5.70;2.28;;;;;;;;;;5000092;28;20462;-88
2022/10/26 05:24:21;;;;;;;5.10;2.00;;;;;;;;;;5016397;28;20046;-88
2022/10/26 05:26:58;;;;;;;3.90;1.80;;;;;;;;;;5017280;28;20026;-88
2022/10/26 05:29:38;;;;;;;7.32;2.10;;;;;;;;;;5016914;28;20041;-88
2022/10/26 05:32:27;;;;;;;4.75;1.70;;;;;;;;;;5017182;28;20116;-88
2022/10/26 05:35:01;;;;;;;4.50;1.48;;;;;;;;;;5016454;28;20053;-88
2022/10/26 05:37:42;;;;;;;3.15;1.30;;;;;;;;;;5016657;28;20033;-88
2022/10/26 05:40:19;;;;;;;2.65;1.00;;;;;;;;;;5022527;28;20491;-88
2022/10/26 05:43:09;;;;;;;5.93;1.13;;;;;;;;;;5018789;28;20121;-88
2022/10/26 05:45:47;;;;;;;1.73;1.10;;;;;;;;;;5016312;28;20061;-88
2022/10/26 05:48:16;;;;;;;2.97;1.30;;;;;;;;;;5016419;28;20399;-88
2022/10/26 05:50:52;;;;;;;3.08;1.20;;;;;;;;;;5032954;28;20041;-88
2022/10/26 05:53:26;;;;;;;2.70;1.40;;;;;;;;;;4999100;28;20379;-88
2022/10/26 05:56:15;;;;;;;1.40;1.10;;;;;;;;;;5015919;28;20030;-88
2022/10/26 05:58:49;;;;;;;2.10;1.58;;;;;;;;;;5017542;28;20083;-89
2022/10/26 06:01:57;;;;;;;2.97;1.13;;;;;;;;;;5031825;28;20034;-89
2022/10/26 06:04:49;;;;;;;2.55;0.85;;;;;;;;;;5017164;28;20510;-88
2022/10/26 06:07:25;;;;;;;1.60;0.93;;;;;;;;;;5017356;28;20026;-88
2022/10/26 06:10:05;;;;;;;2.67;1.10;;;;;;;;;;5014986;28;20096;-88
2022/10/26 06:12:38;;;;;;;2.78;1.15;;;;;;;;;;4999010;28;20132;-87
2022/10/26 06:15:08;;;;;;;3.90;0.90;;;;;;;;;;5016465;28;20398;-89
2022/10/26 06:18:15;;;;;;;2.25;1.00;;;;;;;;;;5015914;28;20030;-88
2022/10/26 06:21:11;;;;;;;1.73;0.90;;;;;;;;;;5015222;28;20103;-87
2022/10/26 06:24:01;;;;;;;1.27;1.10;;;;;;;;;;5015468;28;20490;-87
2022/10/26 06:26:38;;;;;;;1.85;0.90;;;;;;;;;;5014863;28;20287;-87
2022/10/26 06:29:34;;;;;;;1.55;0.98;;;;;;;;;;5013011;28;20070;-87
2022/10/26 06:32:00;;;;;;;3.08;1.08;;;;;;;;;;5013046;28;20113;-87
2022/10/26 06:34:31;;;;;;;1.45;0.90;;;;;;;;;;5012732;28;20468;-87
2022/10/26 06:36:59;;;;;;;6.75;1.05;;;;;;;;;;5011804;28;20033;-88
2022/10/26 06:39:28;;;;;;;3.20;1.10;;;;;;;;;;5011665;28;20076;-88
2022/10/26 06:41:56;;;;;;;3.50;1.10;;;;;;;;;;5011208;28;20125;-89
2022/10/26 06:44:24;;;;;;;1.35;0.90;;;;;;;;;;4995127;28;20568;-88
2022/10/26 06:46:54;;;;;;;2.80;1.20;;;;;;;;;;5011207;28;20407;-88
2022/10/26 06:49:31;;;;;;;2.85;1.20;;;;;;;;;;5011355;28;20140;-88
2022/10/26 06:52:06;;;;;;;2.50;1.17;;;;;;;;;;5012112;28;20034;-89
2022/10/26 06:54:53;;;;;;;3.45;1.20;;;;;;;;;;5010970;28;20483;-88
2022/10/26 06:57:23;;;;;;;5.00;1.27;;;;;;;;;;5012563;28;20030;-89
2022/10/26 07:00:07;;;;;;;2.15;1.20;;;;;;;;;;5012169;28;20045;-88
2022/10/26 07:02:32;;;;;;;;;;;;;;;;;;5013106;28;20103;-88
2022/10/26 07:04:58;;;;;;;1.15;1.00;;;;;;;;;;5011025;28;20391;-88
2022/10/26 07:07:26;;;;;;;3.22;1.00;;;;;;;;;;5012078;28;20030;-88
2022/10/26 07:09:51;;;;;;;3.25;1.25;;;;;;;;;;5010935;28;20487;-89
2022/10/26 07:12:17;;;;;;;1.58;1.08;;;;;;;;;;5013210;28;20036;-88
2022/10/26 07:14:45;;;;;;;6.25;1.58;;;;;;;;;;5017664;28;20069;-88
2022/10/26 07:17:11;;;;;;;1.40;1.05;;;;;;;;;;5017572;28;20111;-88
2022/10/26 07:19:41;;;;;;;5.20;0.90;;;;;;;;;;5015383;28;20029;-90
2022/10/26 07:22:10;;;;;;;19.38;2.17;;;;;;;;;;5016549;28;20107;-90
2022/10/26 07:24:53;;;;;;;20.00;1.88;;;;;;;;;;5016733;28;20052;-91
2022/10/26 07:27:25;;;;;;;23.08;2.25;;;;;;;;;;5015720;28;20041;-91
2022/10/26 07:29:51;;;;;;;3.00;1.60;;;;;;;;;;5016706;28;20041;-88
2022/10/26 07:32:18;;;;;;;4.70;1.95;;;;;;;;;;5016477;28;20117;-89
2022/10/26 07:34:44;;;;;;;3.60;2.10;;;;;;;;;;5034129;28;20039;-88
2022/10/26 07:37:09;;;;;;;2.63;1.52;;;;;;;;;;5036360;28;20120;-88
2022/10/26 07:39:35;;;;;;;3.15;1.30;;;;;;;;;;5035287;28;20037;-88
2022/10/26 07:42:00;;;;;;;2.58;1.20;;;;;;;;;;5035660;28;20076;-88
2022/10/26 07:44:25;;;;;;;2.60;1.35;;;;;;;;;;5034262;28;20033;-88
2022/10/26 07:46:51;;;;;;;4.70;1.55;;;;;;;;;;5039384;28;20566;-88
2022/10/26 07:49:17;;;;;;;11.65;2.30;;;;;;;;;;5039935;28;20371;-88
2022/10/26 07:51:42;;;;;;;4.90;2.13;;;;;;;;;;5040847;28;20051;-88
2022/10/26 07:54:08;;;;;;;6.20;2.00;;;;;;;;;;5037702;28;20041;-88
2022/10/26 07:56:33;;;;;;;7.68;2.47;;;;;;;;;;5037246;28;20036;-88
2022/10/26 07:58:59;;;;;;;6.60;1.90;;;;;;;;;;5037241;28;20029;-88
2022/10/26 08:01:25;;;;;;;3.67;1.50;;;;;;;;;;5036544;28;20549;-87
2022/10/26 08:03:52;;;;;;;5.05;1.67;;;;;;;;;;5033323;28;20041;-89
2022/10/26 08:06:21;;;;;;;2.60;1.27;;;;;;;;;;5017162;28;20541;-86
2022/10/26 08:08:47;;;;;;;2.63;1.20;;;;;;;;;;5018722;28;20099;-87
2022/10/26 08:11:14;;;;;;;3.53;1.20;;;;;;;;;;5018843;28;20046;-88
2022/10/26 08:13:39;;;;;;;4.43;1.13;;;;;;;;;;5019495;28;20034;-88
2022/10/26 08:16:05;;;;;;;6.82;1.20;;;;;;;;;;5020768;28;20029;-88
2022/10/26 08:18:31;;;;;;;3.85;1.20;;;;;;;;;;5019093;28;20046;-88
2022/10/26 08:21:02;;;;;;;6.13;2.30;;;;;;;;;;5018839;28;20119;-87
2022/10/26 08:23:28;;;;;;;7.40;1.90;;;;;;;;;;5019805;28;20080;-89
2022/10/26 08:25:58;;;;;;;2.20;1.20;;;;;;;;;;5015868;28;20069;-88
2022/10/26 08:28:24;;;;;;;2.83;1.63;;;;;;;;;;5018254;28;20050;-89
2022/10/26 08:30:49;;;;;;;2.50;1.38;;;;;;;;;;5019743;28;20068;-87
2022/10/26 08:33:17;;;;;;;2.60;1.10;;;;;;;;;;5016403;28;20121;-88
2022/10/26 08:35:42;;;;;;;3.65;1.17;;;;;;;;;;5018189;28;20034;-89
2022/10/26 08:38:08;;;;;;;5.93;1.58;;;;;;;;;;5002189;28;20133;-89
2022/10/26 08:40:41;;;;;;;2.80;1.27;;;;;;;;;;5019766;28;20108;-89
2022/10/26 08:43:30;;;;;;;2.78;1.30;;;;;;;;;;5019408;28;20041;-86
2022/10/26 08:46:18;;;;;;;1.90;1.20;;;;;;;;;;5018105;28;20034;-88
2022/10/26 08:48:48;;;;;;;8.35;1.42;;;;;;;;;;5019892;28;20498;-88
2022/10/26 08:51:44;;;;;;;4.00;1.15;;;;;;;;;;5018311;28;20034;-88
2022/10/26 08:54:15;;;;;;;5.13;1.35;;;;;;;;;;5007759;28;20410;-88
2022/10/26 08:56:51;;;;;;;5.72;1.20;;;;;;;;;;5020863;28;20095;-88
2022/10/26 08:59:45;;;;;;;2.75;1.40;;;;;;;;;;5002650;28;20061;-89
2022/10/26 09:02:12;;;;;;;3.22;1.17;;;;;;;;;;5001360;28;20033;-88
2022/10/26 09:04:38;;;;;;;2.35;1.20;;;;;;;;;;5017435;28;20566;-87
2022/10/26 09:07:06;;;;;;;1.80;1.20;;;;;;;;;;5017809;28;20073;-88
2022/10/26 09:09:35;;;;;;;3.05;1.17;;;;;;;;;;5017301;28;20038;-88
2022/10/26 09:12:12;;;;;;;5.63;1.13;;;;;;;;;;5019247;28;20042;-88
2022/10/26 09:14:56;;;;;;;2.40;1.10;;;;;;;;;;5019078;28;20044;-88
2022/10/26 09:17:40;;;;;;;4.78;0.95;;;;;;;;;;5019262;28;20132;-90
2022/10/26 09:20:16;;;;;;;2.40;1.27;;;;;;;;;;5017390;28;20611;-88
2022/10/26 09:23:03;;;;;;;3.88;1.60;;;;;;;;;;5019529;28;20037;-88
2022/10/26 09:25:38;;;;;;;2.92;1.50;;;;;;;;;;5018480;28;20028;-90
2022/10/26 09:28:07;;;;;;;2.10;1.00;;;;;;;;;;5023691;28;20037;-90
2022/10/26 09:30:34;;;;;;;2.88;1.02;;;;;;;;;;5031493;28;20068;-89
2022/10/26 09:33:07;;;;;;;2.40;0.98;;;;;;;;;;5027434;28;20018;-89
2022/10/26 09:35:51;;;;;;;4.28;1.17;;;;;;;;;;5017588;28;20030;-89
2022/10/26 09:38:32;;;;;;;3.25;1.10;;;;;;;;;;5043329;28;20519;-89
2022/10/26 09:41:09;;;;;;;2.15;0.93;;;;;;;;;;5031058;28;20029;-88
2022/10/26 09:43:57;;;;;;;1.63;0.80;;;;;;;;;;5032080;28;20033;-88
2022/10/26 09:46:42;;;;;;;4.97;0.90;;;;;;;;;;5037368;28;20037;-88
2022/10/26 09:49:11;;;;;;;1.90;1.10;;;;;;;;;;5040479;28;20033;-85
2022/10/26 09:51:38;;;;;;;3.58;1.23;;;;;;;;;;5034537;28;20029;-89
2022/10/26 09:54:15;;;;;;;3.75;1.10;;;;;;;;;;5041306;28;20052;-87
2022/10/26 09:56:48;;;;;;;3.97;1.00;;;;;;;;;;5029300;28;20044;-88
2022/10/26 09:59:15;;;;;;;4.18;1.17;;;;;;;;;;5027764;28;20057;-88
2022/10/26 10:01:40;;;;;;;1.80;1.00;;;;;;;;;;5019698;28;20037;-88
2022/10/26 10:04:12;;;;;;;1.98;1.10;;;;;;;;;;5022440;28;20089;-88
2022/10/26 10:06:42;;;;;;;3.25;1.10;;;;;;;;;;5028743;28;20030;-88
2022/10/26 10:09:16;;;;;;;3.13;1.15;;;;;;;;;;5028604;28;20091;-88
2022/10/26 10:11:53;;;;;;;5.32;1.17;;;;;;;;;;5027307;28;20079;-88
2022/10/26 10:14:20;;;;;;;4.57;1.10;;;;;;;;;;5008244;28;20029;-88
2022/10/26 10:16:52;;;;;;;2.85;0.93;;;;;;;;;;5027125;28;20082;-88
2022/10/26 10:19:29;;;;;;;5.30;1.10;;;;;;;;;;5028274;28;20059;-88
2022/10/26 10:22:11;;;;;;;2.85;1.10;;;;;;;;;;5030784;28;20125;-89
2022/10/26 10:24:41;;;;;;;1.15;0.88;;;;;;;;;;5029084;28;20040;-88
2022/10/26 10:27:16;;;;;;;3.85;1.00;;;;;;;;;;5018789;28;20037;-87
2022/10/26 10:29:54;;;;;;;1.58;1.02;;;;;;;;;;5025481;28;20034;-88
2022/10/26 10:32:30;;;;;;;2.45;1.30;;;;;;;;;;5026125;28;20045;-89
2022/10/26 10:34:59;;;;;;;2.72;1.15;;;;;;;;;;5026240;28;20038;-88
2022/10/26 10:37:45;;;;;;;3.33;1.00;;;;;;;;;;5027415;28;20029;-88
2022/10/26 10:40:20;;;;;;;2.95;1.20;;;;;;;;;;5028169;28;20041;-88
2022/10/26 10:42:47;;;;;;;5.40;1.23;;;;;;;;;;5027707;28;20049;-89
2022/10/26 10:45:22;;;;;;;5.88;1.40;;;;;;;;;;5028012;28;20034;-89
2022/10/26 10:48:00;;;;;;;3.33;1.17;;;;;;;;;;5027076;28;20029;-88
2022/10/26 10:50:26;;;;;;;1.80;1.10;;;;;;;;;;5025168;28;20062;-89
2022/10/26 10:52:52;;;;;;;3.33;1.00;;;;;;;;;;5021964;28;20026;-89
2022/10/26 10:55:20;;;;;;;2.83;1.30;;;;;;;;;;5034193;28;20029;-88
2022/10/26 10:57:51;;;;;;;5.75;1.20;;;;;;;;;;5033536;28;20401;-89
2022/10/26 11:00:19;;;;;;;5.25;1.20;;;;;;;;;;5036073;28;20030;-92
2022/10/26 11:03:05;;;;;;;1.70;1.10;;;;;;;;;;5027044;28;20034;-89
2022/10/26 11:06:02;;;;;;;2.10;1.10;;;;;;;;;;5012084;28;20038;-89
2022/10/26 11:08:44;;;;;;;2.63;1.02;;;;;;;;;;5019427;28;20069;-90
2022/10/26 11:11:35;;;;;;;4.40;1.30;;;;;;;;;;5026582;28;20034;-89
2022/10/26 11:14:07;;;;;;;4.18;1.33;;;;;;;;;;5024752;28;20594;-89
2022/10/26 11:16:39;;;;;;;1.80;1.30;;;;;;;;;;5023036;28;20038;-90
2022/10/26 11:19:33;;;;;;;2.85;1.55;;;;;;;;;;5027056;28;20060;-89
2022/10/26 11:22:05;;;;;;;5.57;1.80;;;;;;;;;;5026300;28;20033;-89
2022/10/26 11:24:43;;;;;;;3.45;1.05;;;;;;;;;;5027000;28;20030;-89
2022/10/26 11:27:14;;;;;;;2.80;1.23;;;;;;;;;;5022677;28;20380;-89
2022/10/26 11:30:14;;;;;;;2.13;0.88;;;;;;;;;;5021767;28;20030;-90
2022/10/26 11:32:45;;;;;;;3.38;1.00;;;;;;;;;;5021431;28;20038;-89
2022/10/26 11:35:17;;;;;;;5.97;1.20;;;;;;;;;;5021375;28;20052;-89
2022/10/26 11:38:23;;;;;;;1.40;0.90;;;;;;;;;;5017954;28;20040;-90
2022/10/26 11:41:00;;;;;;;3.17;1.10;;;;;;;;;;5017159;28;20042;-89
2022/10/26 11:43:48;;;;;;;3.17;1.08;;;;;;;;;;5037637;28;20064;-90
2022/10/26 11:46:33;;;;;;;3.55;0.93;;;;;;;;;;5035685;28;20622;-90
2022/10/26 11:49:32;;;;;;;3.97;0.88;;;;;;;;;;5035642;28;20040;-90
2022/10/26 11:52:37;;;;;;;1.95;0.90;;;;;;;;;;5018824;28;20033;-90
2022/10/26 11:55:19;;;;;;;1.10;0.90;;;;;;;;;;5035302;28;20056;-90
2022/10/26 11:58:01;;;;;;;1.60;0.85;;;;;;;;;;5019088;28;20095;-89
2022/10/26 12:00:52;;;;;;;2.80;1.00;;;;;;;;;;5033353;28;20056;-90
2022/10/26 12:03:31;;;;;;;1.48;0.90;;;;;;;;;;5036878;28;20020;-89
2022/10/26 12:06:15;;;;;;;2.38;0.90;;;;;;;;;;5035857;28;20041;-89
2022/10/26 12:09:30;;;;;;;2.45;1.00;;;;;;;;;;5035386;28;20485;-90
2022/10/26 12:12:37;;;;;;;1.20;0.80;;;;;;;;;;4999898;28;20045;-89
2022/10/26 12:15:38;;;;;;;3.08;0.80;;;;;;;;;;5021897;28;20045;-89
2022/10/26 12:18:29;;;;;;;1.83;1.00;;;;;;;;;;5037874;28;20029;-89
2022/10/26 12:21:29;;;;;;;1.65;0.88;;;;;;;;;;5037907;28;20037;-89
2022/10/26 12:24:21;;;;;;;2.95;0.90;;;;;;;;;;5034561;28;20041;-92
2022/10/26 12:27:02;;;;;;;2.47;0.90;;;;;;;;;;5020272;28;20132;-89
2022/10/26 12:29:48;;;;;;;3.20;1.08;;;;;;;;;;5003320;28;20076;-90
2022/10/26 12:32:42;;;;;;;;;;;;;;;;;;;;;
2022/10/26 12:35:32;;;;;;;2.33;1.10;;;;;;;;;;5011002;28;20458;-89
2022/10/26 12:39:01;;;;;;;2.63;0.90;;;;;;;;;;4998183;28;20038;-91
2022/10/26 12:41:53;;;;;;;2.05;0.93;;;;;;;;;;5013765;28;20033;-91
2022/10/26 12:44:42;;;;;;;3.85;1.02;;;;;;;;;;5013835;28;20029;-91
2022/10/26 12:47:29;;;;;;;6.13;1.60;;;;;;;;;;4998737;28;20153;-90
2022/10/26 12:50:27;;;;;;;4.78;1.45;;;;;;;;;;5017165;28;20038;-91
2022/10/26 12:53:10;;;;;;;2.90;1.38;;;;;;;;;;5033864;28;20112;-92
2022/10/26 12:56:17;;;;;;;4.10;1.67;;;;;;;;;;5017544;28;20429;-90
2022/10/26 13:02:21;;;;;;;3.33;1.27;;;;;;;;;;5031958;28;20041;-91
2022/10/26 13:05:36;;;;;;;3.60;1.27;;;;;;;;;;5033255;28;20049;-92
2022/10/26 13:08:14;;;;;;;3.40;1.38;;;;;;;;;;5033202;28;20116;-92
2022/10/26 13:11:08;;;;;;;2.72;1.00;;;;;;;;;;5002010;28;20494;-91
2022/10/26 13:14:02;;;;;;;6.45;1.27;;;;;;;;;;5033382;28;20053;-91
2022/10/26 13:19:53;;;;;;;2.38;1.05;;;;;;;;;;5034542;28;20525;-92
2022/10/26 13:23:37;;;;;;;;;;;;;;;;;;;;;
2022/10/26 13:26:44;;;;;;;7.00;1.40;;;;;;;;;;5031230;28;20037;-95
2022/10/26 13:29:32;;;;;;;3.63;1.10;;;;;;;;;;5040557;28;20046;-93
2022/10/26 13:32:23;;;;;;;3.58;1.60;;;;;;;;;;5033113;28;20044;-91
2022/10/26 13:35:05;;;;;;;2.10;1.13;;;;;;;;;;5031442;28;20045;-92
2022/10/26 13:38:11;;;;;;;3.17;1.17;;;;;;;;;;5033084;28;20033;-91
2022/10/26 13:40:53;;;;;;;3.10;1.20;;;;;;;;;;5008902;28;20445;-93
2022/10/26 13:46:52;;;;;;;4.97;1.50;;;;;;;;;;5032722;28;20405;-92
2022/10/26 13:49:24;;;;;;;3.95;1.20;;;;;;;;;;5016224;28;20068;-92
2022/10/26 13:52:12;;;;;;;3.30;1.27;;;;;;;;;;5032543;28;20040;-92
2022/10/26 13:54:59;;;;;;;3.40;1.23;;;;;;;;;;5031111;28;20037;-91
2022/10/26 13:58:15;;;;;;;7.75;1.42;;;;;;;;;;5020999;28;20584;-92
2022/10/26 14:01:39;;;;;;;5.15;1.30;;;;;;;;;;5032818;28;20021;-92
2022/10/26 14:04:21;;;;;;;6.88;1.60;;;;;;;;;;4972552;28;20034;-90
2022/10/26 14:07:37;;;;;;;7.60;2.45;;;;;;;;;;4973584;28;20034;-91
2022/10/26 14:10:44;;;;;;;11.50;2.25;;;;;;;;;;5011672;28;20068;-90
2022/10/26 14:13:33;;;;;;;5.55;1.90;;;;;;;;;;5034063;28;20041;-91
2022/10/26 14:15:59;;;;;;;7.53;1.40;;;;;;;;;;5033925;28;20029;-89
2022/10/26 14:18:30;;;;;;;5.95;1.90;;;;;;;;;;5015534;28;20037;-89
2022/10/26 14:21:07;;;;;;;4.28;1.60;;;;;;;;;;5016358;28;20479;-90
2022/10/26 14:23:44;;;;;;;9.52;1.70;;;;;;;;;;5013522;28;20034;-90
2022/10/26 14:26:22;;;;;;;6.10;1.58;;;;;;;;;;5019211;28;20457;-91
2022/10/26 14:29:02;;;;;;;8.68;1.73;;;;;;;;;;5020448;28;20498;-89
2022/10/26 14:31:33;;;;;;;4.07;1.90;;;;;;;;;;5037778;28;20063;-89
2022/10/26 14:34:03;;;;;;;5.75;1.63;;;;;;;;;;5030870;28;20451;-89
2022/10/26 14:36:48;;;;;;;9.25;2.20;;;;;;;;;;5019767;28;20509;-90
2022/10/26 14:39:43;;;;;;;6.53;1.90;;;;;;;;;;5015977;28;20417;-89
2022/10/26 14:42:27;;;;;;;5.30;1.90;;;;;;;;;;5013433;28;20502;-90
2022/10/26 14:44:54;;;;;;;6.15;1.80;;;;;;;;;;4998758;28;20040;-90
2022/10/26 14:47:26;;;;;;;6.68;1.80;;;;;;;;;;5015175;28;20030;-89
2022/10/26 14:49:52;;;;;;;6.47;1.70;;;;;;;;;;4998864;28;20125;-89
2022/10/26 14:52:22;;;;;;;4.43;1.92;;;;;;;;;;5014778;28;20033;-89
2022/10/26 14:55:14;;;;;;;3.10;1.75;;;;;;;;;;5015128;28;20040;-89
2022/10/26 14:57:42;;;;;;;4.72;1.83;;;;;;;;;;5014936;28;20415;-88
2022/10/26 15:00:23;;;;;;;4.95;1.98;;;;;;;;;;5015950;28;20042;-90
2022/10/26 15:02:51;;;;;;;3.53;1.65;;;;;;;;;;5016278;28;20479;-90
2022/10/26 15:05:23;;;;;;;3.67;1.83;;;;;;;;;;5014849;28;20029;-88
2022/10/26 15:07:52;;;;;;;5.55;1.80;;;;;;;;;;4998602;28;20030;-89
2022/10/26 15:10:39;;;;;;;4.68;1.83;;;;;;;;;;5016357;28;20033;-89
2022/10/26 15:13:14;;;;;;;4.13;1.90;;;;;;;;;;5019244;28;20033;-89
2022/10/26 15:15:42;;;;;;;5.57;1.75;;;;;;;;;;5020497;28;20037;-89
2022/10/26 15:18:26;;;;;;;4.53;2.10;;;;;;;;;;5019965;28;20041;-89
2022/10/26 15:20:53;;;;;;;5.57;2.20;;;;;;;;;;5021818;28;20033;-89
2022/10/26 15:23:23;;;;;;;3.22;1.80;;;;;;;;;;5002896;28;20029;-88
2022/10/26 15:25:58;;;;;;;6.57;2.00;;;;;;;;;;5018951;28;20089;-88
2022/10/26 15:28:36;;;;;;;7.85;1.95;;;;;;;;;;5020449;28;20046;-88
2022/10/26 15:31:10;;;;;;;4.00;1.90;;;;;;;;;;5019650;28;20041;-88
2022/10/26 15:33:42;;;;;;;7.68;1.80;;;;;;;;;;5020875;28;20049;-88
2022/10/26 15:36:15;;;;;;;3.80;1.80;;;;;;;;;;5019234;28;20083;-88
2022/10/26 15:38:41;;;;;;;4.50;2.03;;;;;;;;;;5018604;28;20038;-87
2022/10/26 15:41:21;;;;;;;7.10;1.80;;;;;;;;;;5020471;28;20061;-88
2022/10/26 15:43:52;;;;;;;5.10;1.70;;;;;;;;;;5020577;28;20034;-88
2022/10/26 15:46:23;;;;;;;4.82;1.83;;;;;;;;;;5003233;28;20038;-88